sensor_id;sensor_type;location;lat;lon;timestamp;temperature;humidity
35381;DHT22;21486;51.916;8.378;2022-11-20T00:00:36;-3.60;92.80
35381;DHT22;21486;51.916;8.378;2022-11-20T00:03:02;-3.60;92.70
35381;DHT22;21486;51.916;8.378;2022-11-20T00:05:27;-3.70;92.80
35381;DHT22;21486;51.916;8.378;2022-11-20T00:07:53;-3.70;93.00
35381;DHT22;21486;51.916;8.378;2022-11-20T00:10:18;-3.70;92.80
35381;DHT22;21486;51.916;8.378;2022-11-20T00:12:44;-3.70;92.70
35381;DHT22;21486;51.916;8.378;2022-11-20T00:15:10;-3.60;92.80
35381;DHT22;21486;51.916;8.378;2022-11-20T00:17:35;-3.70;92.80
35381;DHT22;21486;51.916;8.378;2022-11-20T00:20:01;-3.70;92.80
35381;DHT22;21486;51.916;8.378;2022-11-20T00:22:26;-3.70;92.50
35381;DHT22;21486;51.916;8.378;2022-11-20T00:24:52;-3.80;92.80
35381;DHT22;21486;51.916;8.378;2022-11-20T00:27:17;-3.80;92.80
35381;DHT22;21486;51.916;8.378;2022-11-20T00:29:43;-3.80;92.70
35381;DHT22;21486;51.916;8.378;2022-11-20T00:32:09;-3.80;92.40
35381;DHT22;21486;51.916;8.378;2022-11-20T00:34:34;-3.70;92.40
35381;DHT22;21486;51.916;8.378;2022-11-20T00:37:00;-3.80;92.30
35381;DHT22;21486;51.916;8.378;2022-11-20T00:39:25;-3.90;92.70
35381;DHT22;21486;51.916;8.378;2022-11-20T00:41:51;-3.90;92.80
35381;DHT22;21486;51.916;8.378;2022-11-20T00:44:16;-3.90;92.50
35381;DHT22;21486;51.916;8.378;2022-11-20T00:46:42;-3.90;92.70
35381;DHT22;21486;51.916;8.378;2022-11-20T00:49:08;-3.90;92.80
35381;DHT22;21486;51.916;8.378;2022-11-20T00:51:33;-3.90;92.80
35381;DHT22;21486;51.916;8.378;2022-11-20T00:53:59;-3.90;92.70
35381;DHT22;21486;51.916;8.378;2022-11-20T00:56:27;-4.00;92.70
35381;DHT22;21486;51.916;8.378;2022-11-20T00:58:52;-4.00;92.80
35381;DHT22;21486;51.916;8.378;2022-11-20T01:01:20;-4.00;92.50
35381;DHT22;21486;51.916;8.378;2022-11-20T01:03:48;-4.00;92.50
35381;DHT22;21486;51.916;8.378;2022-11-20T01:06:34;-4.00;92.40
35381;DHT22;21486;51.916;8.378;2022-11-20T01:09:04;-4.10;92.50
35381;DHT22;21486;51.916;8.378;2022-11-20T01:11:33;-4.10;92.70
35381;DHT22;21486;51.916;8.378;2022-11-20T01:14:00;-4.10;92.70
35381;DHT22;21486;51.916;8.378;2022-11-20T01:16:31;-4.10;92.70
35381;DHT22;21486;51.916;8.378;2022-11-20T01:18:59;-4.10;92.60
35381;DHT22;21486;51.916;8.378;2022-11-20T01:21:31;-4.00;92.60
35381;DHT22;21486;51.916;8.378;2022-11-20T01:23:57;-4.20;92.60
35381;DHT22;21486;51.916;8.378;2022-11-20T01:26:28;-4.20;92.90
35381;DHT22;21486;51.916;8.378;2022-11-20T01:28:55;-4.20;92.80
35381;DHT22;21486;51.916;8.378;2022-11-20T01:33:04;-4.20;92.20
35381;DHT22;21486;51.916;8.378;2022-11-20T01:35:29;-4.20;92.00
35381;DHT22;21486;51.916;8.378;2022-11-20T01:37:55;-4.10;92.00
35381;DHT22;21486;51.916;8.378;2022-11-20T01:40:20;-4.00;92.10
35381;DHT22;21486;51.916;8.378;2022-11-20T01:42:57;-4.10;91.50
35381;DHT22;21486;51.916;8.378;2022-11-20T01:48:20;-4.20;92.60
35381;DHT22;21486;51.916;8.378;2022-11-20T01:50:48;-4.30;92.70
35381;DHT22;21486;51.916;8.378;2022-11-20T01:53:17;-4.30;93.10
35381;DHT22;21486;51.916;8.378;2022-11-20T01:55:49;-4.30;93.10
35381;DHT22;21486;51.916;8.378;2022-11-20T01:58:16;-4.30;92.70
35381;DHT22;21486;51.916;8.378;2022-11-20T02:00:42;-4.30;92.40
35381;DHT22;21486;51.916;8.378;2022-11-20T02:03:12;-4.50;92.40
35381;DHT22;21486;51.916;8.378;2022-11-20T02:06:02;-4.50;93.10
35381;DHT22;21486;51.916;8.378;2022-11-20T02:08:29;-4.50;93.10
35381;DHT22;21486;51.916;8.378;2022-11-20T02:10:55;-4.50;93.10
35381;DHT22;21486;51.916;8.378;2022-11-20T02:13:21;-4.50;93.10
35381;DHT22;21486;51.916;8.378;2022-11-20T02:16:10;-4.30;93.20
35381;DHT22;21486;51.916;8.378;2022-11-20T02:18:36;-4.40;92.90
35381;DHT22;21486;51.916;8.378;2022-11-20T02:24:12;-4.50;92.90
35381;DHT22;21486;51.916;8.378;2022-11-20T02:27:07;-4.40;93.10
35381;DHT22;21486;51.916;8.378;2022-11-20T02:29:38;-4.50;93.30
35381;DHT22;21486;51.916;8.378;2022-11-20T02:32:05;-4.30;93.10
35381;DHT22;21486;51.916;8.378;2022-11-20T02:34:31;-4.40;92.90
35381;DHT22;21486;51.916;8.378;2022-11-20T02:36:57;-4.40;93.00
35381;DHT22;21486;51.916;8.378;2022-11-20T02:39:25;-4.40;92.90
35381;DHT22;21486;51.916;8.378;2022-11-20T02:41:53;-4.40;92.60
35381;DHT22;21486;51.916;8.378;2022-11-20T02:44:19;-4.50;92.90
35381;DHT22;21486;51.916;8.378;2022-11-20T02:46:45;-4.50;93.20
35381;DHT22;21486;51.916;8.378;2022-11-20T02:49:11;-4.50;93.20
35381;DHT22;21486;51.916;8.378;2022-11-20T02:51:36;-4.40;93.40
35381;DHT22;21486;51.916;8.378;2022-11-20T02:54:02;-4.50;93.40
35381;DHT22;21486;51.916;8.378;2022-11-20T02:56:28;-4.50;93.30
35381;DHT22;21486;51.916;8.378;2022-11-20T02:58:54;-4.50;93.30
35381;DHT22;21486;51.916;8.378;2022-11-20T03:01:19;-4.60;93.40
35381;DHT22;21486;51.916;8.378;2022-11-20T03:03:45;-4.60;93.30
35381;DHT22;21486;51.916;8.378;2022-11-20T03:06:11;-4.60;93.00
35381;DHT22;21486;51.916;8.378;2022-11-20T03:08:36;-4.70;93.10
35381;DHT22;21486;51.916;8.378;2022-11-20T03:11:06;-4.70;93.00
35381;DHT22;21486;51.916;8.378;2022-11-20T03:13:32;-4.60;92.80
35381;DHT22;21486;51.916;8.378;2022-11-20T03:15:58;-4.80;93.00
35381;DHT22;21486;51.916;8.378;2022-11-20T03:18:24;-4.80;92.90
35381;DHT22;21486;51.916;8.378;2022-11-20T03:20:49;-4.80;93.20
35381;DHT22;21486;51.916;8.378;2022-11-20T03:23:15;-4.80;93.30
35381;DHT22;21486;51.916;8.378;2022-11-20T03:25:40;-4.80;93.40
35381;DHT22;21486;51.916;8.378;2022-11-20T03:28:06;-4.80;93.30
35381;DHT22;21486;51.916;8.378;2022-11-20T03:30:31;-4.70;93.00
35381;DHT22;21486;51.916;8.378;2022-11-20T03:32:57;-4.80;92.90
35381;DHT22;21486;51.916;8.378;2022-11-20T03:35:23;-4.90;93.10
35381;DHT22;21486;51.916;8.378;2022-11-20T03:37:48;-4.80;93.00
35381;DHT22;21486;51.916;8.378;2022-11-20T03:40:14;-4.90;93.20
35381;DHT22;21486;51.916;8.378;2022-11-20T03:42:40;-4.80;93.40
35381;DHT22;21486;51.916;8.378;2022-11-20T03:45:16;-4.90;93.30
35381;DHT22;21486;51.916;8.378;2022-11-20T03:47:42;-5.00;93.20
35381;DHT22;21486;51.916;8.378;2022-11-20T03:50:08;-4.90;93.30
35381;DHT22;21486;51.916;8.378;2022-11-20T03:52:34;-5.00;93.30
35381;DHT22;21486;51.916;8.378;2022-11-20T03:55:00;-5.00;93.40
35381;DHT22;21486;51.916;8.378;2022-11-20T03:57:25;-5.00;93.40
35381;DHT22;21486;51.916;8.378;2022-11-20T03:59:51;-5.00;93.40
35381;DHT22;21486;51.916;8.378;2022-11-20T04:02:16;-4.90;93.40
35381;DHT22;21486;51.916;8.378;2022-11-20T04:04:42;-4.90;92.70
35381;DHT22;21486;51.916;8.378;2022-11-20T04:07:08;-4.90;92.90
35381;DHT22;21486;51.916;8.378;2022-11-20T04:09:33;-5.10;93.00
35381;DHT22;21486;51.916;8.378;2022-11-20T04:11:59;-5.00;92.80
35381;DHT22;21486;51.916;8.378;2022-11-20T04:14:24;-5.00;92.70
35381;DHT22;21486;51.916;8.378;2022-11-20T04:16:50;-5.00;92.40
35381;DHT22;21486;51.916;8.378;2022-11-20T04:19:16;-5.10;92.80
35381;DHT22;21486;51.916;8.378;2022-11-20T04:21:43;-5.10;93.00
35381;DHT22;21486;51.916;8.378;2022-11-20T04:24:09;-5.10;93.10
35381;DHT22;21486;51.916;8.378;2022-11-20T04:26:36;-5.10;93.10
35381;DHT22;21486;51.916;8.378;2022-11-20T04:29:02;-5.10;93.10
35381;DHT22;21486;51.916;8.378;2022-11-20T04:31:30;-4.90;92.50
35381;DHT22;21486;51.916;8.378;2022-11-20T04:33:59;-5.10;92.30
35381;DHT22;21486;51.916;8.378;2022-11-20T04:36:26;-5.10;92.50
35381;DHT22;21486;51.916;8.378;2022-11-20T04:38:54;-5.10;92.80
35381;DHT22;21486;51.916;8.378;2022-11-20T04:41:21;-5.20;93.00
35381;DHT22;21486;51.916;8.378;2022-11-20T04:43:52;-5.20;92.70
35381;DHT22;21486;51.916;8.378;2022-11-20T04:46:19;-5.20;92.70
35381;DHT22;21486;51.916;8.378;2022-11-20T04:48:45;-5.30;93.00
35381;DHT22;21486;51.916;8.378;2022-11-20T04:51:11;-5.20;93.00
35381;DHT22;21486;51.916;8.378;2022-11-20T04:53:36;-5.20;93.10
35381;DHT22;21486;51.916;8.378;2022-11-20T04:56:04;-5.20;93.30
35381;DHT22;21486;51.916;8.378;2022-11-20T04:58:30;-5.30;93.00
35381;DHT22;21486;51.916;8.378;2022-11-20T05:01:04;-5.30;93.20
35381;DHT22;21486;51.916;8.378;2022-11-20T05:03:30;-5.30;93.20
35381;DHT22;21486;51.916;8.378;2022-11-20T05:05:56;-5.30;93.00
35381;DHT22;21486;51.916;8.378;2022-11-20T05:08:24;-5.20;92.60
35381;DHT22;21486;51.916;8.378;2022-11-20T05:10:50;-5.00;92.30
35381;DHT22;21486;51.916;8.378;2022-11-20T05:13:16;-5.10;92.20
35381;DHT22;21486;51.916;8.378;2022-11-20T05:15:41;-5.10;92.40
35381;DHT22;21486;51.916;8.378;2022-11-20T05:18:07;-5.20;92.60
35381;DHT22;21486;51.916;8.378;2022-11-20T05:20:32;-5.20;92.70
35381;DHT22;21486;51.916;8.378;2022-11-20T05:22:58;-5.30;92.50
35381;DHT22;21486;51.916;8.378;2022-11-20T05:25:23;-5.20;92.40
35381;DHT22;21486;51.916;8.378;2022-11-20T05:27:49;-5.30;92.60
35381;DHT22;21486;51.916;8.378;2022-11-20T05:30:15;-5.30;92.90
35381;DHT22;21486;51.916;8.378;2022-11-20T05:32:40;-5.20;92.80
35381;DHT22;21486;51.916;8.378;2022-11-20T05:35:06;-5.30;92.90
35381;DHT22;21486;51.916;8.378;2022-11-20T05:37:32;-5.30;92.80
35381;DHT22;21486;51.916;8.378;2022-11-20T05:39:58;-5.30;92.80
35381;DHT22;21486;51.916;8.378;2022-11-20T05:42:24;-5.30;92.70
35381;DHT22;21486;51.916;8.378;2022-11-20T05:44:56;-5.30;92.80
35381;DHT22;21486;51.916;8.378;2022-11-20T05:47:22;-5.30;92.80
35381;DHT22;21486;51.916;8.378;2022-11-20T05:49:47;-5.30;92.80
35381;DHT22;21486;51.916;8.378;2022-11-20T05:52:13;-5.40;92.70
35381;DHT22;21486;51.916;8.378;2022-11-20T05:54:39;-5.30;92.80
35381;DHT22;21486;51.916;8.378;2022-11-20T05:57:04;-5.40;92.50
35381;DHT22;21486;51.916;8.378;2022-11-20T05:59:30;-5.40;92.70
35381;DHT22;21486;51.916;8.378;2022-11-20T06:01:55;-5.40;92.90
35381;DHT22;21486;51.916;8.378;2022-11-20T06:04:21;-5.30;93.10
35381;DHT22;21486;51.916;8.378;2022-11-20T06:06:46;-5.20;92.40
35381;DHT22;21486;51.916;8.378;2022-11-20T06:09:12;-5.30;92.20
35381;DHT22;21486;51.916;8.378;2022-11-20T06:11:38;-5.30;92.40
35381;DHT22;21486;51.916;8.378;2022-11-20T06:14:03;-5.30;92.40
35381;DHT22;21486;51.916;8.378;2022-11-20T06:16:29;-5.20;92.40
35381;DHT22;21486;51.916;8.378;2022-11-20T06:18:54;-5.10;92.40
35381;DHT22;21486;51.916;8.378;2022-11-20T06:21:23;-5.00;91.90
35381;DHT22;21486;51.916;8.378;2022-11-20T06:23:50;-5.00;91.90
35381;DHT22;21486;51.916;8.378;2022-11-20T06:26:23;-5.00;92.20
35381;DHT22;21486;51.916;8.378;2022-11-20T06:28:50;-4.90;91.90
35381;DHT22;21486;51.916;8.378;2022-11-20T06:31:18;-4.90;91.90
35381;DHT22;21486;51.916;8.378;2022-11-20T06:33:44;-4.70;91.50
35381;DHT22;21486;51.916;8.378;2022-11-20T06:36:11;-4.70;91.40
35381;DHT22;21486;51.916;8.378;2022-11-20T06:38:38;-4.60;91.70
35381;DHT22;21486;51.916;8.378;2022-11-20T06:41:05;-4.50;91.80
35381;DHT22;21486;51.916;8.378;2022-11-20T06:43:30;-4.50;91.50
35381;DHT22;21486;51.916;8.378;2022-11-20T06:45:57;-4.50;91.70
35381;DHT22;21486;51.916;8.378;2022-11-20T06:48:25;-4.40;91.60
35381;DHT22;21486;51.916;8.378;2022-11-20T06:50:51;-4.30;91.70
35381;DHT22;21486;51.916;8.378;2022-11-20T06:53:17;-4.30;91.10
35381;DHT22;21486;51.916;8.378;2022-11-20T06:55:44;-4.20;91.00
35381;DHT22;21486;51.916;8.378;2022-11-20T06:58:10;-4.30;90.70
35381;DHT22;21486;51.916;8.378;2022-11-20T07:00:35;-4.30;90.90
35381;DHT22;21486;51.916;8.378;2022-11-20T07:03:05;-4.30;91.30
35381;DHT22;21486;51.916;8.378;2022-11-20T07:05:31;-4.30;91.20
35381;DHT22;21486;51.916;8.378;2022-11-20T07:07:57;-4.20;90.90
35381;DHT22;21486;51.916;8.378;2022-11-20T07:10:22;-4.20;91.00
35381;DHT22;21486;51.916;8.378;2022-11-20T07:12:52;-4.20;90.70
35381;DHT22;21486;51.916;8.378;2022-11-20T07:15:19;-4.20;90.90
35381;DHT22;21486;51.916;8.378;2022-11-20T07:17:45;-4.20;90.80
35381;DHT22;21486;51.916;8.378;2022-11-20T07:20:11;-4.10;91.00
35381;DHT22;21486;51.916;8.378;2022-11-20T07:22:37;-4.10;91.00
35381;DHT22;21486;51.916;8.378;2022-11-20T07:25:03;-4.10;91.10
35381;DHT22;21486;51.916;8.378;2022-11-20T07:27:29;-4.10;91.30
35381;DHT22;21486;51.916;8.378;2022-11-20T07:29:55;-4.00;91.00
35381;DHT22;21486;51.916;8.378;2022-11-20T07:32:21;-4.00;91.00
35381;DHT22;21486;51.916;8.378;2022-11-20T07:34:47;-3.90;90.80
35381;DHT22;21486;51.916;8.378;2022-11-20T07:37:13;-4.00;90.80
35381;DHT22;21486;51.916;8.378;2022-11-20T07:39:39;-4.00;91.20
35381;DHT22;21486;51.916;8.378;2022-11-20T07:42:08;-3.90;91.10
35381;DHT22;21486;51.916;8.378;2022-11-20T07:44:35;-3.80;90.60
35381;DHT22;21486;51.916;8.378;2022-11-20T07:47:01;-3.70;90.80
35381;DHT22;21486;51.916;8.378;2022-11-20T07:49:27;-3.70;90.60
35381;DHT22;21486;51.916;8.378;2022-11-20T07:51:53;-3.60;90.90
35381;DHT22;21486;51.916;8.378;2022-11-20T07:54:20;-3.60;91.00
35381;DHT22;21486;51.916;8.378;2022-11-20T07:56:46;-3.60;90.60
35381;DHT22;21486;51.916;8.378;2022-11-20T07:59:12;-3.40;90.70
35381;DHT22;21486;51.916;8.378;2022-11-20T08:01:39;-3.40;90.90
35381;DHT22;21486;51.916;8.378;2022-11-20T08:04:05;-3.30;91.00
35381;DHT22;21486;51.916;8.378;2022-11-20T08:06:31;-3.20;91.00
35381;DHT22;21486;51.916;8.378;2022-11-20T08:08:57;-3.10;90.50
35381;DHT22;21486;51.916;8.378;2022-11-20T08:11:22;-3.00;90.20
35381;DHT22;21486;51.916;8.378;2022-11-20T08:14:07;-2.80;88.50
35381;DHT22;21486;51.916;8.378;2022-11-20T08:16:43;-2.90;89.30
35381;DHT22;21486;51.916;8.378;2022-11-20T08:19:09;-2.90;89.80
35381;DHT22;21486;51.916;8.378;2022-11-20T08:21:35;-2.80;89.50
35381;DHT22;21486;51.916;8.378;2022-11-20T08:24:01;-2.70;89.10
35381;DHT22;21486;51.916;8.378;2022-11-20T08:26:35;-2.80;88.60
35381;DHT22;21486;51.916;8.378;2022-11-20T08:29:01;-2.70;89.40
35381;DHT22;21486;51.916;8.378;2022-11-20T08:31:27;-2.60;88.70
35381;DHT22;21486;51.916;8.378;2022-11-20T08:33:53;-2.60;88.90
35381;DHT22;21486;51.916;8.378;2022-11-20T08:36:21;-2.40;88.50
35381;DHT22;21486;51.916;8.378;2022-11-20T08:38:48;-2.50;88.10
35381;DHT22;21486;51.916;8.378;2022-11-20T08:41:14;-2.50;88.70
35381;DHT22;21486;51.916;8.378;2022-11-20T08:44:09;-2.40;89.30
35381;DHT22;21486;51.916;8.378;2022-11-20T08:46:36;-2.30;89.00
35381;DHT22;21486;51.916;8.378;2022-11-20T08:49:45;-2.20;89.00
35381;DHT22;21486;51.916;8.378;2022-11-20T08:51:58;-2.00;89.10
35381;DHT22;21486;51.916;8.378;2022-11-20T08:54:24;-1.70;88.60
35381;DHT22;21486;51.916;8.378;2022-11-20T08:56:49;-1.50;86.80
35381;DHT22;21486;51.916;8.378;2022-11-20T08:59:15;-1.30;86.20
35381;DHT22;21486;51.916;8.378;2022-11-20T09:01:41;-0.90;83.10
35381;DHT22;21486;51.916;8.378;2022-11-20T09:04:06;-0.50;81.70
35381;DHT22;21486;51.916;8.378;2022-11-20T09:06:32;-0.10;79.90
35381;DHT22;21486;51.916;8.378;2022-11-20T09:08:58;0.10;79.80
35381;DHT22;21486;51.916;8.378;2022-11-20T09:11:23;0.10;77.80
35381;DHT22;21486;51.916;8.378;2022-11-20T09:13:49;0.30;76.80
35381;DHT22;21486;51.916;8.378;2022-11-20T09:16:14;0.30;79.30
35381;DHT22;21486;51.916;8.378;2022-11-20T09:18:40;0.70;77.20
35381;DHT22;21486;51.916;8.378;2022-11-20T09:21:11;0.60;76.50
35381;DHT22;21486;51.916;8.378;2022-11-20T09:23:38;0.80;78.30
35381;DHT22;21486;51.916;8.378;2022-11-20T09:26:05;1.30;75.90
35381;DHT22;21486;51.916;8.378;2022-11-20T09:28:31;1.70;74.90
35381;DHT22;21486;51.916;8.378;2022-11-20T09:30:57;2.30;72.80
35381;DHT22;21486;51.916;8.378;2022-11-20T09:33:23;2.40;72.20
35381;DHT22;21486;51.916;8.378;2022-11-20T09:35:48;2.30;71.80
35381;DHT22;21486;51.916;8.378;2022-11-20T09:38:14;2.20;73.20
35381;DHT22;21486;51.916;8.378;2022-11-20T09:43:28;2.40;72.80
35381;DHT22;21486;51.916;8.378;2022-11-20T09:49:11;2.90;73.90
35381;DHT22;21486;51.916;8.378;2022-11-20T09:51:46;3.50;72.00
35381;DHT22;21486;51.916;8.378;2022-11-20T09:54:21;4.60;68.10
35381;DHT22;21486;51.916;8.378;2022-11-20T09:56:55;4.90;65.50
35381;DHT22;21486;51.916;8.378;2022-11-20T09:59:41;4.40;66.50
35381;DHT22;21486;51.916;8.378;2022-11-20T10:02:37;4.80;65.90
35381;DHT22;21486;51.916;8.378;2022-11-20T10:05:24;5.50;63.80
35381;DHT22;21486;51.916;8.378;2022-11-20T10:08:23;5.20;63.70
35381;DHT22;21486;51.916;8.378;2022-11-20T10:13:49;5.10;65.10
35381;DHT22;21486;51.916;8.378;2022-11-20T10:16:46;4.90;65.50
35381;DHT22;21486;51.916;8.378;2022-11-20T10:24:52;4.20;68.70
35381;DHT22;21486;51.916;8.378;2022-11-20T10:30:09;4.60;68.00
35381;DHT22;21486;51.916;8.378;2022-11-20T10:32:41;4.60;68.40
35381;DHT22;21486;51.916;8.378;2022-11-20T10:37:44;5.30;66.90
35381;DHT22;21486;51.916;8.378;2022-11-20T10:40:27;5.60;64.10
35381;DHT22;21486;51.916;8.378;2022-11-20T10:42:57;5.40;64.50
35381;DHT22;21486;51.916;8.378;2022-11-20T10:47:54;5.10;66.00
35381;DHT22;21486;51.916;8.378;2022-11-20T10:50:22;4.40;68.40
35381;DHT22;21486;51.916;8.378;2022-11-20T10:53:31;4.90;67.80
35381;DHT22;21486;51.916;8.378;2022-11-20T10:56:19;4.80;66.80
35381;DHT22;21486;51.916;8.378;2022-11-20T11:01:19;4.00;69.50
35381;DHT22;21486;51.916;8.378;2022-11-20T11:03:48;3.70;71.30
35381;DHT22;21486;51.916;8.378;2022-11-20T11:06:32;3.80;70.80
35381;DHT22;21486;51.916;8.378;2022-11-20T11:09:02;4.20;70.20
35381;DHT22;21486;51.916;8.378;2022-11-20T11:11:32;3.90;71.40
35381;DHT22;21486;51.916;8.378;2022-11-20T11:14:12;3.70;72.00
35381;DHT22;21486;51.916;8.378;2022-11-20T11:16:55;4.20;71.70
35381;DHT22;21486;51.916;8.378;2022-11-20T11:19:22;4.70;70.60
35381;DHT22;21486;51.916;8.378;2022-11-20T11:21:56;4.60;69.60
35381;DHT22;21486;51.916;8.378;2022-11-20T11:24:26;4.00;69.80
35381;DHT22;21486;51.916;8.378;2022-11-20T11:26:56;3.80;72.00
35381;DHT22;21486;51.916;8.378;2022-11-20T11:29:22;3.80;72.10
35381;DHT22;21486;51.916;8.378;2022-11-20T11:31:49;3.50;73.70
35381;DHT22;21486;51.916;8.378;2022-11-20T11:34:16;3.40;73.50
35381;DHT22;21486;51.916;8.378;2022-11-20T11:36:49;3.70;73.80
35381;DHT22;21486;51.916;8.378;2022-11-20T11:39:19;3.60;74.00
35381;DHT22;21486;51.916;8.378;2022-11-20T11:41:45;2.90;75.40
35381;DHT22;21486;51.916;8.378;2022-11-20T11:44:22;2.70;76.90
35381;DHT22;21486;51.916;8.378;2022-11-20T11:49:44;2.50;78.30
35381;DHT22;21486;51.916;8.378;2022-11-20T11:52:18;2.30;78.90
35381;DHT22;21486;51.916;8.378;2022-11-20T11:55:03;2.20;80.20
35381;DHT22;21486;51.916;8.378;2022-11-20T12:00:19;2.10;82.30
35381;DHT22;21486;51.916;8.378;2022-11-20T12:05:26;2.10;82.50
35381;DHT22;21486;51.916;8.378;2022-11-20T12:07:54;2.10;82.30
35381;DHT22;21486;51.916;8.378;2022-11-20T12:10:46;2.10;82.10
35381;DHT22;21486;51.916;8.378;2022-11-20T12:16:02;2.00;82.30
35381;DHT22;21486;51.916;8.378;2022-11-20T12:18:29;1.90;83.10
35381;DHT22;21486;51.916;8.378;2022-11-20T12:29:40;1.80;84.80
35381;DHT22;21486;51.916;8.378;2022-11-20T12:41:25;2.00;85.10
35381;DHT22;21486;51.916;8.378;2022-11-20T12:44:44;2.00;84.80
35381;DHT22;21486;51.916;8.378;2022-11-20T12:48:05;1.80;85.70
35381;DHT22;21486;51.916;8.378;2022-11-20T13:05:32;2.30;85.30
35381;DHT22;21486;51.916;8.378;2022-11-20T13:07:56;2.40;85.10
35381;DHT22;21486;51.916;8.378;2022-11-20T13:10:56;2.40;84.90
35381;DHT22;21486;51.916;8.378;2022-11-20T13:13:56;2.50;84.50
35381;DHT22;21486;51.916;8.378;2022-11-20T13:19:10;2.60;83.40
35381;DHT22;21486;51.916;8.378;2022-11-20T13:21:39;2.70;82.80
35381;DHT22;21486;51.916;8.378;2022-11-20T13:29:37;3.00;80.40
35381;DHT22;21486;51.916;8.378;2022-11-20T13:32:17;2.90;81.10
35381;DHT22;21486;51.916;8.378;2022-11-20T13:34:54;2.90;81.50
35381;DHT22;21486;51.916;8.378;2022-11-20T13:37:35;2.80;81.80
35381;DHT22;21486;51.916;8.378;2022-11-20T13:45:11;2.60;81.60
35381;DHT22;21486;51.916;8.378;2022-11-20T13:47:50;2.60;82.30
35381;DHT22;21486;51.916;8.378;2022-11-20T13:50:17;2.50;82.60
35381;DHT22;21486;51.916;8.378;2022-11-20T13:52:58;2.50;82.90
35381;DHT22;21486;51.916;8.378;2022-11-20T13:55:55;2.40;83.20
35381;DHT22;21486;51.916;8.378;2022-11-20T13:58:52;2.40;83.70
35381;DHT22;21486;51.916;8.378;2022-11-20T14:01:28;2.30;83.60
35381;DHT22;21486;51.916;8.378;2022-11-20T14:03:55;2.30;83.60
35381;DHT22;21486;51.916;8.378;2022-11-20T14:06:32;2.40;83.70
35381;DHT22;21486;51.916;8.378;2022-11-20T14:08:59;2.40;83.80
35381;DHT22;21486;51.916;8.378;2022-11-20T14:11:27;2.40;82.70
35381;DHT22;21486;51.916;8.378;2022-11-20T14:14:10;2.50;82.80
35381;DHT22;21486;51.916;8.378;2022-11-20T14:16:38;2.50;82.30
35381;DHT22;21486;51.916;8.378;2022-11-20T14:19:26;2.50;81.60
35381;DHT22;21486;51.916;8.378;2022-11-20T14:24:43;2.50;81.70
35381;DHT22;21486;51.916;8.378;2022-11-20T14:27:18;2.40;81.60
35381;DHT22;21486;51.916;8.378;2022-11-20T14:29:46;2.40;81.60
35381;DHT22;21486;51.916;8.378;2022-11-20T14:32:15;2.40;81.90
35381;DHT22;21486;51.916;8.378;2022-11-20T14:34:44;2.40;82.20
35381;DHT22;21486;51.916;8.378;2022-11-20T14:37:21;2.50;82.30
35381;DHT22;21486;51.916;8.378;2022-11-20T14:39:57;2.30;82.40
35381;DHT22;21486;51.916;8.378;2022-11-20T14:42:28;2.20;82.40
35381;DHT22;21486;51.916;8.378;2022-11-20T14:44:59;2.30;82.30
35381;DHT22;21486;51.916;8.378;2022-11-20T14:47:29;2.20;82.10
35381;DHT22;21486;51.916;8.378;2022-11-20T14:49:57;2.20;82.60
35381;DHT22;21486;51.916;8.378;2022-11-20T14:52:26;2.20;82.20
35381;DHT22;21486;51.916;8.378;2022-11-20T14:54:58;2.30;82.50
35381;DHT22;21486;51.916;8.378;2022-11-20T14:57:31;2.20;83.00
35381;DHT22;21486;51.916;8.378;2022-11-20T15:02:43;2.20;82.90
35381;DHT22;21486;51.916;8.378;2022-11-20T15:05:09;2.20;82.90
35381;DHT22;21486;51.916;8.378;2022-11-20T15:07:38;2.10;83.00
35381;DHT22;21486;51.916;8.378;2022-11-20T15:10:18;2.20;83.20
35381;DHT22;21486;51.916;8.378;2022-11-20T15:12:58;2.20;83.10
35381;DHT22;21486;51.916;8.378;2022-11-20T15:15:33;2.10;83.10
35381;DHT22;21486;51.916;8.378;2022-11-20T15:18:00;2.10;83.20
35381;DHT22;21486;51.916;8.378;2022-11-20T15:20:28;2.20;82.70
35381;DHT22;21486;51.916;8.378;2022-11-20T15:22:55;2.30;82.30
35381;DHT22;21486;51.916;8.378;2022-11-20T15:25:20;2.30;82.10
35381;DHT22;21486;51.916;8.378;2022-11-20T15:27:55;2.30;82.30
35381;DHT22;21486;51.916;8.378;2022-11-20T15:30:22;2.30;82.80
35381;DHT22;21486;51.916;8.378;2022-11-20T15:32:48;2.20;82.90
35381;DHT22;21486;51.916;8.378;2022-11-20T15:35:14;2.10;82.80
35381;DHT22;21486;51.916;8.378;2022-11-20T15:37:41;2.10;83.10
35381;DHT22;21486;51.916;8.378;2022-11-20T15:40:08;2.20;82.50
35381;DHT22;21486;51.916;8.378;2022-11-20T15:42:34;2.10;82.60
35381;DHT22;21486;51.916;8.378;2022-11-20T15:45:00;2.20;82.60
35381;DHT22;21486;51.916;8.378;2022-11-20T15:47:29;2.10;82.50
35381;DHT22;21486;51.916;8.378;2022-11-20T15:49:56;2.10;82.40
35381;DHT22;21486;51.916;8.378;2022-11-20T15:52:22;2.10;82.20
35381;DHT22;21486;51.916;8.378;2022-11-20T15:54:47;2.20;82.40
35381;DHT22;21486;51.916;8.378;2022-11-20T15:57:13;2.10;82.70
35381;DHT22;21486;51.916;8.378;2022-11-20T15:59:39;2.30;82.00
35381;DHT22;21486;51.916;8.378;2022-11-20T16:02:14;2.30;82.20
35381;DHT22;21486;51.916;8.378;2022-11-20T16:04:40;2.10;82.00
35381;DHT22;21486;51.916;8.378;2022-11-20T16:07:06;2.10;81.50
35381;DHT22;21486;51.916;8.378;2022-11-20T16:09:32;2.30;82.00
35381;DHT22;21486;51.916;8.378;2022-11-20T16:11:58;2.20;81.60
35381;DHT22;21486;51.916;8.378;2022-11-20T16:14:27;2.30;81.50
35381;DHT22;21486;51.916;8.378;2022-11-20T16:17:11;2.20;81.10
35381;DHT22;21486;51.916;8.378;2022-11-20T16:19:37;2.20;81.10
35381;DHT22;21486;51.916;8.378;2022-11-20T16:22:05;2.30;80.10
35381;DHT22;21486;51.916;8.378;2022-11-20T16:24:30;2.30;79.90
35381;DHT22;21486;51.916;8.378;2022-11-20T16:26:57;2.30;80.20
35381;DHT22;21486;51.916;8.378;2022-11-20T16:29:22;2.30;80.10
35381;DHT22;21486;51.916;8.378;2022-11-20T16:31:48;2.40;79.60
35381;DHT22;21486;51.916;8.378;2022-11-20T16:34:16;2.50;79.70
35381;DHT22;21486;51.916;8.378;2022-11-20T16:36:42;2.30;79.90
35381;DHT22;21486;51.916;8.378;2022-11-20T16:39:10;2.30;79.90
35381;DHT22;21486;51.916;8.378;2022-11-20T16:41:36;2.50;79.50
35381;DHT22;21486;51.916;8.378;2022-11-20T16:44:07;2.30;80.10
35381;DHT22;21486;51.916;8.378;2022-11-20T16:46:32;2.40;79.40
35381;DHT22;21486;51.916;8.378;2022-11-20T16:49:00;2.50;79.60
35381;DHT22;21486;51.916;8.378;2022-11-20T16:51:27;2.30;79.50
35381;DHT22;21486;51.916;8.378;2022-11-20T16:53:53;2.30;80.00
35381;DHT22;21486;51.916;8.378;2022-11-20T16:56:22;2.40;80.10
35381;DHT22;21486;51.916;8.378;2022-11-20T16:58:48;2.30;80.20
35381;DHT22;21486;51.916;8.378;2022-11-20T17:01:17;2.30;80.00
35381;DHT22;21486;51.916;8.378;2022-11-20T17:03:45;2.30;80.00
35381;DHT22;21486;51.916;8.378;2022-11-20T17:06:17;2.20;80.20
35381;DHT22;21486;51.916;8.378;2022-11-20T17:08:44;2.30;80.30
35381;DHT22;21486;51.916;8.378;2022-11-20T17:11:12;2.20;80.20
35381;DHT22;21486;51.916;8.378;2022-11-20T17:13:38;2.20;80.60
35381;DHT22;21486;51.916;8.378;2022-11-20T17:16:15;2.30;80.70
35381;DHT22;21486;51.916;8.378;2022-11-20T17:18:42;2.10;80.80
35381;DHT22;21486;51.916;8.378;2022-11-20T17:21:09;2.20;80.80
35381;DHT22;21486;51.916;8.378;2022-11-20T17:23:41;2.20;80.80
35381;DHT22;21486;51.916;8.378;2022-11-20T17:26:10;2.10;80.60